Latest Weather Observations for St George

IDQ60801

Issued at 11:02 am EST Thursday 21 November 2019 (issued every 10 minutes, with the page automatically refreshed every 10 minutes)

About weather observations | Map of weather stations | Latest weather observations for QLD | Other Formats
Station Details ID: 043109 Name: ST GEORGE AIRPORT Lat: -28.05 Lon: 148.59 Height: 198.5 m
Data from the previous 72 hours. | See also: Recent months at St George
Date/Time
EST
Temp
°C
App
Temp
°C
Dew
Point
°C
Rel
Hum
%
Delta-T
°C
Wind Press
QNH
hPa
Press
MSL
hPa
Rain since
9am
mm
Dir  Spd
km/h
Gust
km/h
Spd
kts
Gust
kts
21/11:00am 35.9 31.1 11.5 23 14.6 NNW 28 41 15 22 1012.1 1011.0 0.0
21/10:30am 34.8 29.3 11.9 25 13.7 N 32 46 17 25 1012.4 1011.3 0.0
21/10:02am 33.9 29.3 12.3 27 13.0 N 28 46 15 25 1012.7 1011.6 0.0
21/10:00am 34.6 30.2 12.9 27 13.2 N 28 44 15 24 1012.7 1011.6 0.0
21/09:39am 33.4 28.2 12.9 28 12.4 N 32 52 17 28 1012.8 1011.7 0.0
21/09:30am 33.3 28.3 13.4 30 12.1 N 32 46 17 25 1013.0 1011.9 0.0
21/09:00am 32.2 27.0 12.9 31 11.6 N 32 46 17 25 1013.3 1012.2 0.0
21/08:53am 32.1 27.1 13.3 31 11.4 N 32 50 17 27 1013.3 1012.2 0.0
21/08:30am 31.4 26.2 12.7 32 11.2 N 32 43 17 23 1013.4 1012.3 0.0
21/08:00am 30.6 25.3 13.0 34 10.5 NNE 33 46 18 25 1013.5 1012.5 0.0
21/07:30am 29.8 24.9 12.7 35 10.2 NNE 30 46 16 25 1013.4 1012.3 0.0
21/07:00am 28.8 24.2 12.2 35 9.8 NNE 28 44 15 24 1013.3 1012.2 0.0
21/06:30am 28.0 22.8 11.5 35 9.5 NNE 30 43 16 23 1012.8 1011.7 0.0
21/06:00am 27.3 23.3 14.0 44 8.0 NNE 28 39 15 21 1012.2 1011.1 0.0
21/05:59am 27.3 23.3 14.0 44 8.0 NNE 28 39 15 21 1012.2 1011.1 0.0
21/05:30am 26.5 24.1 11.4 39 8.7 NE 15 20 8 11 1011.8 1010.7 0.0
21/05:00am 26.6 23.5 10.3 36 9.2 ENE 17 20 9 11 1011.2 1010.1 0.0
21/04:30am 27.0 23.4 9.8 34 9.6 ENE 19 28 10 15 1010.9 1009.8 0.0
21/04:00am 27.1 23.9 11.2 37 9.1 ENE 19 26 10 14 1010.3 1009.3 0.0
21/03:30am 27.4 24.0 11.4 37 9.2 E 20 26 11 14 1009.9 1008.9 0.0
21/03:00am 27.7 23.8 10.9 35 9.6 E 22 33 12 18 1009.6 1008.6 0.0
21/02:30am 27.6 24.0 9.9 33 10.0 E 19 28 10 15 1009.4 1008.4 0.0
21/02:00am 26.9 22.1 2.7 21 12.0 ESE 17 20 9 11 1009.5 1008.5 0.0
21/01:30am 27.4 21.9 -2.4 14 13.5 ESE 17 20 9 11 1009.4 1008.4 0.0
21/01:00am 28.2 22.2 -2.8 13 14.1 ESE 19 26 10 14 1009.5 1008.5 0.0
21/12:30am 29.0 22.7 -5.7 10 15.0 ESE 19 26 10 14 1009.5 1008.5 0.0
21/12:00am 29.0 23.6 -4.4 11 14.8 SE 15 19 8 10 1009.7 1008.7 0.0
 
Date/Time
EST
Temp
°C
App
Temp
°C
Dew
Point
°C
Rel
Hum
%
Delta-T
°C
Wind Press
QNH
hPa
Press
MSL
hPa
Rain since
9am
mm
Dir  Spd
km/h
Gust
km/h
Spd
kts
Gust
kts
20/11:30pm 30.0 24.2 -4.9 10 15.4 SE 17 20 9 11 1009.8 1008.8 0.0
20/11:00pm 30.6 25.1 -5.8 9 16.0 SSE 15 19 8 10 1009.9 1008.9 0.0
20/10:30pm 31.2 25.9 -4.0 10 16.0 SSE 15 19 8 10 1009.9 1008.9 0.0
20/10:00pm 29.0 24.9 -3.2 12 14.6 SSE 9 11 5 6 1009.8 1008.8 0.0
20/09:30pm 28.0 25.0 -2.0 14 13.8 SSE 4 9 2 5 1009.7 1008.7 0.0
20/09:00pm 29.2 26.9 -2.0 13 14.5 CALM 0 0 0 0 1009.5 1008.5 0.0
20/08:30pm 31.1 27.6 -2.8 11 15.7 SSE 6 7 3 4 1009.3 1008.3 0.0
20/08:00pm 32.8 28.6 -4.2 9 17.0 SSE 9 11 5 6 1009.0 1008.0 0.0
20/07:30pm 33.9 29.8 -3.4 9 17.4 SSE 9 13 5 7 1008.8 1007.7 0.0
20/07:00pm 35.3 30.3 -3.9 8 18.4 SSE 13 15 7 8 1008.6 1007.5 0.0
20/06:30pm 37.8 32.5 -3.9 7 19.9 SE 15 20 8 11 1008.3 1007.2 0.0
20/06:00pm 39.2 34.1 -4.9 6 21.0 S 13 17 7 9 1008.0 1006.9 0.0
20/05:30pm 39.8 33.6 -4.5 6 21.2 SSE 19 26 10 14 1007.7 1006.6 0.0
20/05:00pm 40.2 34.4 -4.2 6 21.5 SSE 17 32 9 17 1007.4 1006.3 0.0
20/04:30pm 40.4 34.3 -4.1 6 21.5 SE 19 32 10 17 1007.4 1006.3 0.0
20/04:00pm 39.9 34.9 -4.4 6 21.3 E 13 22 7 12 1007.6 1006.5 0.0
20/03:30pm 40.8 35.9 -3.8 6 21.7 ESE 13 26 7 14 1007.8 1006.7 0.0
20/03:00pm 40.1 35.1 -4.3 6 21.4 SE 13 28 7 15 1008.1 1007.0 0.0
20/02:30pm 39.9 34.9 -4.4 6 21.3 SSE 13 28 7 15 1008.4 1007.3 0.0
20/02:00pm 41.4 35.4 -3.4 6 22.1 SSW 19 28 10 15 1008.7 1007.6 0.0
20/01:30pm 40.0 34.2 -4.3 6 21.3 SE 17 26 9 14 1009.2 1008.2 0.0
20/01:00pm 40.2 35.6 -4.2 6 21.4 WSW 11 22 6 12 1009.6 1008.6 0.0
20/12:30pm 39.2 34.4 -2.9 7 20.6 SE 13 22 7 12 1010.3 1009.3 0.0
20/12:00pm 38.4 33.1 -3.4 7 20.2 ENE 15 28 8 15 1010.7 1009.7 0.0
20/11:30am 37.9 33.7 -3.8 7 19.9 WSW 9 26 5 14 1011.4 1010.3 0.0
20/11:00am 37.4 33.4 -2.4 8 19.4 SE 9 19 5 10 1011.8 1010.7 0.0
20/10:30am 36.6 33.1 -3.0 8 19.0 NE 6 13 3 7 1012.3 1011.2 0.0
20/10:00am 36.8 32.7 -2.8 8 19.1 WSW 9 15 5 8 1012.7 1011.6 0.0
20/09:30am 35.2 31.6 -4.0 8 18.3 W 6 11 3 6 1012.8 1011.7 0.0
20/09:00am 34.3 30.6 -3.1 9 17.6 NE 7 13 4 7 1013.0 1011.9 0.0
20/08:30am 32.0 27.5 -3.4 10 16.3 N 11 15 6 8 1013.2 1012.1 0.0
20/08:00am 31.2 26.6 -4.0 10 16.0 NNE 11 15 6 8 1013.2 1012.1 0.0
20/07:30am 30.0 27.2 -3.6 11 15.2 NNE 2 7 1 4 1013.1 1012.0 0.0
20/07:00am 26.9 24.7 -1.9 15 13.1 CALM 0 0 0 0 1012.9 1011.8 0.0
20/06:30am 23.8 21.3 -1.2 19 11.2 N 2 6 1 3 1012.6 1011.5 0.0
20/06:00am 20.0 17.9 -0.6 25 9.1 CALM 0 0 0 0 1012.4 1011.3 0.0
20/05:30am 17.7 14.5 -0.5 29 7.9 NNE 6 7 3 4 1012.2 1011.1 0.0
20/05:00am 17.8 15.6 -1.4 27 8.2 CALM 0 0 0 0 1012.0 1010.9 0.0
20/04:30am 18.2 16.1 -1.1 27 8.3 CALM 0 0 0 0 1011.7 1010.6 0.0
20/04:00am 18.0 15.9 -0.8 28 8.1 CALM 0 0 0 0 1011.4 1010.3 0.0
20/03:30am 18.4 16.4 -0.4 28 8.2 CALM 0 0 0 0 1011.3 1010.2 0.0
20/03:00am 18.7 17.0 2.1 33 7.7 CALM 0 0 0 0 1011.3 1010.2 0.0
20/02:30am 19.2 17.5 1.7 31 8.0 CALM 0 0 0 0 1011.3 1010.2 0.0
20/02:00am 19.8 17.9 0.3 27 8.7 CALM 0 0 0 0 1011.4 1010.3 0.0
20/01:30am 19.7 17.6 -0.9 25 9.0 CALM 0 0 0 0 1011.6 1010.5 0.0
20/01:00am 21.1 18.8 -2.0 21 10.0 CALM 0 0 0 0 1011.7 1010.6 0.0
20/12:30am 20.7 18.5 -1.8 22 9.7 CALM 0 0 0 0 1011.9 1010.8 0.0
20/12:00am 20.8 18.5 -2.3 21 9.9 CALM 0 0 0 0 1012.2 1011.1 0.0
 
Date/Time
EST
Temp
°C
App
Temp
°C
Dew
Point
°C
Rel
Hum
%
Delta-T
°C
Wind Press
QNH
hPa
Press
MSL
hPa
Rain since
9am
mm
Dir  Spd
km/h
Gust
km/h
Spd
kts
Gust
kts
19/11:30pm 21.3 19.1 -1.3 22 9.9 CALM 0 0 0 0 1012.6 1011.5 0.0
19/11:00pm 21.9 19.9 -0.1 23 10.0 CALM 0 0 0 0 1012.6 1011.5 0.0
19/10:30pm 22.5 20.2 -2.2 19 10.8 CALM 0 0 0 0 1012.8 1011.7 0.0
19/10:00pm 23.0 20.8 -1.8 19 11.0 CALM 0 0 0 0 1012.8 1011.7 0.0
19/09:30pm 23.9 21.5 -3.4 16 11.8 CALM 0 0 0 0 1012.7 1011.6 0.0
19/09:00pm 25.9 23.4 -3.6 14 12.9 CALM 0 0 0 0 1012.3 1011.2 0.0
19/08:30pm 25.6 23.3 -2.1 16 12.4 CALM 0 0 0 0 1012.1 1011.0 0.0
19/08:00pm 27.7 24.0 -4.3 12 14.1 SSW 6 6 3 3 1011.9 1010.8 0.0
19/07:30pm 28.6 24.8 -3.6 12 14.4 SSW 7 9 4 5 1011.7 1010.6 0.0
19/07:00pm 31.8 27.3 -6.5 8 16.8 SSW 9 11 5 6 1011.4 1010.3 0.0
19/06:30pm 33.6 28.3 -6.9 7 17.8 S 13 19 7 10 1011.1 1010.0 0.0
19/06:00pm 34.9 29.0 -6.0 7 18.5 SSE 17 20 9 11 1010.5 1009.5 0.0
19/05:30pm 35.6 30.1 -5.5 7 18.8 SSW 15 20 8 11 1010.2 1009.2 0.0
19/05:00pm 35.9 29.8 -7.2 6 19.3 SSW 17 24 9 13 1010.0 1009.0 0.0
19/04:30pm 36.6 32.1 -6.8 6 19.6 SW 9 20 5 11 1009.9 1008.9 0.0
19/04:00pm 36.8 30.8 -6.6 6 19.7 SW 17 24 9 13 1010.0 1009.0 0.0
19/03:30pm 36.4 30.8 -6.9 6 19.5 SSW 15 37 8 20 1010.0 1009.0 0.0
19/03:00pm 35.8 31.6 -7.3 6 19.2 S 7 13 4 7 1010.5 1009.5 0.0
19/02:30pm 35.6 30.7 -7.5 6 19.1 SSW 11 26 6 14 1010.9 1009.8 0.0
19/02:00pm 36.6 30.0 -6.8 6 19.6 SW 20 37 11 20 1011.2 1010.1 0.0
19/01:30pm 34.9 29.3 -6.0 7 18.5 WSW 15 26 8 14 1011.8 1010.7 0.0
19/01:00pm 34.8 30.2 -4.3 8 18.2 SSW 11 22 6 12 1012.1 1011.0 0.0
19/12:30pm 33.9 29.4 -3.4 9 17.4 W 11 20 6 11 1012.6 1011.5 0.0
19/12:00pm 33.6 29.8 -3.6 9 17.3 WSW 7 15 4 8 1013.2 1012.1 0.0
19/11:30am 33.6 29.8 -3.6 9 17.3 SE 7 11 4 6 1013.6 1012.6 0.0
19/11:00am 32.5 28.2 -1.7 11 16.3 WNW 11 17 6 9 1014.1 1013.1 0.0
19/10:30am 31.3 26.6 -1.5 12 15.5 N 13 20 7 11 1014.6 1013.6 0.0
19/10:00am 31.3 27.4 -1.5 12 15.5 NNW 9 20 5 11 1014.9 1013.9 0.0
19/09:30am 30.3 27.0 -0.1 14 14.7 NE 7 15 4 8 1015.2 1014.2 0.0
19/09:00am 29.2 26.2 0.8 16 13.8 ENE 6 9 3 5 1015.4 1014.4 0.0
19/08:30am 28.0 24.7 -1.0 15 13.5 NE 6 9 3 5 1015.5 1014.5 0.0
19/08:00am 25.9 22.7 -3.6 14 12.9 NNE 4 9 2 5 1015.5 1014.5 0.0
19/07:30am 24.7 21.8 -4.6 14 12.5 SSE 2 7 1 4 1015.5 1014.5 0.0
19/07:00am 22.0 19.2 -3.4 18 10.8 SW 2 7 1 4 1015.4 1014.4 0.0
19/06:30am 19.9 16.7 -3.7 20 9.8 NNW 4 13 2 7 1015.3 1014.3 0.0
19/06:00am 16.4 13.3 -2.6 27 7.8 SW 4 7 2 4 1014.9 1013.9 0.0
19/05:30am 14.1 10.3 -4.1 28 7.0 SW 7 9 4 5 1014.6 1013.6 0.0
19/05:00am 14.7 12.0 -5.6 24 7.6 CALM 0 0 0 0 1014.5 1013.5 0.0
19/04:30am 14.9 12.2 -6.0 23 7.8 CALM 0 0 0 0 1014.1 1013.1 0.0
19/04:00am 15.9 13.1 -7.0 20 8.5 CALM 0 0 0 0 1014.0 1013.0 0.0
19/03:30am 17.8 13.1 -5.4 20 9.1 E 11 17 6 9 1013.9 1012.9 0.0
19/03:00am 17.0 13.6 -5.5 21 8.7 SSE 4 6 2 3 1013.6 1012.6 0.0
19/02:30am 17.5 13.6 -6.3 19 9.1 S 6 7 3 4 1013.4 1012.3 0.0
19/02:00am 18.4 14.6 -5.6 19 9.4 S 6 7 3 4 1013.4 1012.3 0.0
19/01:30am 19.2 15.5 -5.0 19 9.7 SSW 6 7 3 4 1013.5 1012.5 0.0
19/01:00am 19.9 15.9 -5.8 17 10.2 SW 7 9 4 5 1013.7 1012.7 0.0
19/12:30am 20.1 15.8 -4.9 18 10.1 SW 9 9 5 5 1013.9 1012.9 0.0
19/12:00am 20.2 15.7 -6.4 16 10.5 SW 9 9 5 5 1014.0 1013.0 0.0
 
Date/Time
EST
Temp
°C
App
Temp
°C
Dew
Point
°C
Rel
Hum
%
Delta-T
°C
Wind Press
QNH
hPa
Press
MSL
hPa
Rain since
9am
mm
Dir  Spd
km/h
Gust
km/h
Spd
kts
Gust
kts
18/11:30pm 20.5 16.5 -6.1 16 10.6 SW 7 7 4 4 1014.1 1013.1 0.0
18/11:00pm 20.8 16.9 -5.1 17 10.5 SW 7 9 4 5 1014.3 1013.3 0.0
18/10:30pm 22.0 17.8 -7.6 13 11.6 SW 7 9 4 5 1014.4 1013.4 0.0
18/10:00pm 20.6 16.4 -3.8 19 10.1 SW 9 11 5 6 1014.4 1013.4 0.0
18/09:30pm 22.2 17.9 -8.5 12 11.8 SW 7 9 4 5 1014.3 1013.3 0.0
18/09:00pm 24.1 20.8 -8.2 11 12.8 SW 2 6 1 3 1014.2 1013.2 0.0
18/08:30pm 24.6 20.7 -6.7 12 12.8 SSW 6 7 3 4 1014.1 1013.1 0.0
18/08:00pm 25.1 21.2 -4.2 14 12.6 SSW 7 9 4 5 1013.9 1012.9 0.0
18/07:30pm 26.3 21.5 -10.5 8 14.2 SSW 9 9 5 5 1013.7 1012.7 0.0
18/07:00pm 28.7 23.9 -10.5 7 15.5 SSW 9 11 5 6 1013.5 1012.5 0.0
18/06:30pm 30.1 24.9 -11.4 6 16.4 S 11 13 6 7 1013.3 1012.2 0.0
18/06:00pm 31.8 25.5 -10.2 6 17.2 SSW 17 22 9 12 1013.0 1011.9 0.0
18/05:30pm 32.7 27.8 -11.8 5 17.9 SSW 9 17 5 9 1012.7 1011.6 0.0
18/05:00pm 32.8 26.8 -11.7 5 18.0 S 15 22 8 12 1012.5 1011.4 0.0
18/04:30pm 33.0 27.0 -11.6 5 18.1 SW 15 20 8 11 1012.6 1011.5 0.0
18/04:00pm 33.4 27.0 -11.3 5 18.3 S 17 28 9 15 1012.6 1011.5 0.0
18/03:30pm 33.3 27.7 -11.4 5 18.2 SW 13 26 7 14 1012.8 1011.7 0.0
18/03:00pm 32.3 27.8 -12.1 5 17.7 SE 7 15 4 8 1013.1 1012.0 0.0
18/02:30pm 32.5 26.5 -11.9 5 17.8 SSW 15 28 8 15 1013.3 1012.2 0.0
18/02:00pm 32.3 26.2 -12.1 5 17.7 SSW 15 24 8 13 1013.7 1012.7 0.0
18/01:30pm 33.5 28.4 -9.0 6 18.1 S 11 24 6 13 1014.1 1013.1 0.0
18/01:00pm 32.2 27.1 -9.9 6 17.4 SSE 11 22 6 12 1014.7 1013.7 0.0
18/12:30pm 30.4 25.5 -11.2 6 16.6 WNW 9 15 5 8 1015.1 1014.1 0.0
18/12:00pm 30.6 24.2 -11.0 6 16.6 SSW 17 28 9 15 1015.6 1014.6 0.0
18/11:30am 30.0 25.3 -9.5 7 16.1 SW 9 15 5 8 1015.8 1014.8 0.0

Other formats

Comma delimited format used in spreadsheet applications
http://www.bom.gov.au/fwo/IDQ60801/IDQ60801.94517.axf

JavaScript Object Notation format (JSON) in row-major order
http://www.bom.gov.au/fwo/IDQ60801/IDQ60801.94517.json

Data quality

Most of these data are generated automatically and are frequently updated. Quality checks on data are not normally performed. It is possible for incorrect values to appear. Refer to information at About Latest Weather Observations and please check the disclaimer before using these data.